PANO2: Poteau River At Panama

Data processed at Sat Dec 15 2018 23:32


All information presented herein is the property of the government of the United States of America and may be revised or deleted at any time without prior notice.
Dissemination of this information without the expressed written consent of the Public Affairs Office, Tulsa District U.S. Army Corps of Engineers is strictly prohibited.
These data are gathered electronically and, as presented, have not undergone any form of quality control. These data are not guaranteed to be valid or correct.
Go to home page.
Go to station list.
Go to home page.

Upstream stations:

Downstream station:
Previous Day
Next Day
Current Day
    
SHEF ID:       PANO2     Poteau River near Panama, OK
STATION TYPE:  

               PRECIP     STAGE  RIV-FLOW  BAT-LOAD
                   in        ft       cfs      volt
              Ccp-Rev   Ccp-Rev   Ccp-Rev   Ccp-Rev
(US/Central)
12/15 00:00      0.01     29.27     10789     12.41
12/15 01:00      0.00     29.41     10917     12.41
12/15 02:00      0.00     29.58     11078     12.41
12/15 03:00      0.00     29.73     11226     12.41
12/15 04:00      0.00     29.87     11364     12.41
12/15 05:00      0.00     29.99     11484     12.41
12/15 06:00      0.00     30.12     11614     12.41
12/15 07:00      0.00     30.22     11715     12.41
12/15 08:00      0.00     30.29     11786     12.41
12/15 09:00      0.00     30.36     11857     12.41
12/15 10:00      0.00     30.41     11908     12.49
12/15 11:00      0.00     30.47     11969     12.49
12/15 12:00      0.00     30.52     12021     12.65
12/15 13:00      0.00     30.51     12011     12.97
12/15 14:00      0.00     30.51     12011     13.05
12/15 15:00      0.00     30.49     11990     12.97
12/15 16:00      0.00     30.42     11918     12.89
12/15 17:00      0.00     30.34     11837     12.73
12/15 18:00      0.00     30.25     11746     12.65
12/15 19:00      0.00     30.13     11624     12.65
12/15 20:00      0.00     29.96     11454     12.57
12/15 21:00      0.00     29.79     11285     12.57
12/15 22:00      0.00     29.57     11068     12.57
12/15 23:00      0.00     29.34     10853     12.49